Terminal Aerodrome Forecast
Issued by NWS

Current Version | Previous Version | Text Only | Print | Product List | Glossary Off
Versions: 1 2 3 4 5 6 7 8 9 10 11 12 13 14 15 16

779
FTUS41 KPBZ 210520
TAFHLG
TAF
KHLG 210520Z 2106/2206 11008KT P6SM BKN200 WS015/18033KT
     FM211500 16010G18KT P6SM VCSH BKN050
     FM211800 17012G22KT P6SM -SHRA VCTS OVC035CB
     FM220100 18008KT P6SM VCSH OVC025
     FM220400 19007KT P6SM OVC015=

USA.gov is the U.S. government's official web portal to all federal, state and local government web resources and services.